sensor_id;sensor_type;location;lat;lon;timestamp;P1;durP1;ratioP1;P2;durP2;ratioP2
5912;SDS011;2982;42.684;23.356;2024-02-04T00:00:40;2.43;;;2.23;;
5912;SDS011;2982;42.684;23.356;2024-02-04T00:03:05;2.17;;;1.63;;
5912;SDS011;2982;42.684;23.356;2024-02-04T00:05:30;2.03;;;1.80;;
5912;SDS011;2982;42.684;23.356;2024-02-04T00:07:56;2.10;;;1.80;;
5912;SDS011;2982;42.684;23.356;2024-02-04T00:10:21;5.55;;;2.10;;
5912;SDS011;2982;42.684;23.356;2024-02-04T00:12:46;1.77;;;1.45;;
5912;SDS011;2982;42.684;23.356;2024-02-04T00:15:12;1.97;;;1.80;;
5912;SDS011;2982;42.684;23.356;2024-02-04T00:17:37;3.57;;;2.30;;
5912;SDS011;2982;42.684;23.356;2024-02-04T00:20:03;2.60;;;2.40;;
5912;SDS011;2982;42.684;23.356;2024-02-04T00:22:28;4.07;;;2.57;;
5912;SDS011;2982;42.684;23.356;2024-02-04T00:24:54;2.03;;;1.83;;
5912;SDS011;2982;42.684;23.356;2024-02-04T00:27:19;2.22;;;2.03;;
5912;SDS011;2982;42.684;23.356;2024-02-04T00:29:44;2.38;;;2.20;;
5912;SDS011;2982;42.684;23.356;2024-02-04T00:32:10;6.40;;;2.45;;
5912;SDS011;2982;42.684;23.356;2024-02-04T00:34:35;2.63;;;2.43;;
5912;SDS011;2982;42.684;23.356;2024-02-04T00:37:00;2.57;;;2.37;;
5912;SDS011;2982;42.684;23.356;2024-02-04T00:39:26;3.87;;;2.70;;
5912;SDS011;2982;42.684;23.356;2024-02-04T00:41:51;3.00;;;2.40;;
5912;SDS011;2982;42.684;23.356;2024-02-04T00:44:16;2.70;;;2.50;;
5912;SDS011;2982;42.684;23.356;2024-02-04T00:46:42;2.00;;;1.90;;
5912;SDS011;2982;42.684;23.356;2024-02-04T00:49:07;1.73;;;1.63;;
5912;SDS011;2982;42.684;23.356;2024-02-04T00:51:33;2.92;;;2.50;;
5912;SDS011;2982;42.684;23.356;2024-02-04T00:53:58;2.25;;;2.05;;
5912;SDS011;2982;42.684;23.356;2024-02-04T00:56:23;2.17;;;1.90;;
5912;SDS011;2982;42.684;23.356;2024-02-04T00:58:49;2.83;;;1.95;;
5912;SDS011;2982;42.684;23.356;2024-02-04T01:01:14;2.80;;;2.45;;
5912;SDS011;2982;42.684;23.356;2024-02-04T01:03:39;2.42;;;2.00;;
5912;SDS011;2982;42.684;23.356;2024-02-04T01:06:05;2.75;;;2.55;;
5912;SDS011;2982;42.684;23.356;2024-02-04T01:08:30;1.35;;;1.23;;
5912;SDS011;2982;42.684;23.356;2024-02-04T01:10:55;5.43;;;2.22;;
5912;SDS011;2982;42.684;23.356;2024-02-04T01:13:21;2.40;;;2.20;;
5912;SDS011;2982;42.684;23.356;2024-02-04T01:15:46;1.55;;;1.45;;
5912;SDS011;2982;42.684;23.356;2024-02-04T01:18:11;2.45;;;1.70;;
5912;SDS011;2982;42.684;23.356;2024-02-04T01:20:37;1.70;;;1.60;;
5912;SDS011;2982;42.684;23.356;2024-02-04T01:23:03;2.03;;;1.83;;
5912;SDS011;2982;42.684;23.356;2024-02-04T01:25:29;3.38;;;1.95;;
5912;SDS011;2982;42.684;23.356;2024-02-04T01:27:54;3.67;;;1.88;;
5912;SDS011;2982;42.684;23.356;2024-02-04T01:30:19;2.00;;;1.80;;
5912;SDS011;2982;42.684;23.356;2024-02-04T01:32:45;4.47;;;2.55;;
5912;SDS011;2982;42.684;23.356;2024-02-04T01:35:10;2.00;;;1.90;;
5912;SDS011;2982;42.684;23.356;2024-02-04T01:37:36;1.95;;;1.85;;
5912;SDS011;2982;42.684;23.356;2024-02-04T01:40:01;3.55;;;2.08;;
5912;SDS011;2982;42.684;23.356;2024-02-04T01:42:26;1.98;;;1.88;;
5912;SDS011;2982;42.684;23.356;2024-02-04T01:44:52;3.72;;;2.03;;
5912;SDS011;2982;42.684;23.356;2024-02-04T01:47:17;2.42;;;1.60;;
5912;SDS011;2982;42.684;23.356;2024-02-04T01:49:43;2.33;;;2.08;;
5912;SDS011;2982;42.684;23.356;2024-02-04T01:52:09;3.87;;;1.90;;
5912;SDS011;2982;42.684;23.356;2024-02-04T01:54:35;2.15;;;1.95;;
5912;SDS011;2982;42.684;23.356;2024-02-04T01:57:02;1.90;;;1.80;;
5912;SDS011;2982;42.684;23.356;2024-02-04T01:59:28;1.40;;;1.30;;
5912;SDS011;2982;42.684;23.356;2024-02-04T02:01:54;2.10;;;1.92;;
5912;SDS011;2982;42.684;23.356;2024-02-04T02:04:20;1.92;;;1.77;;
5912;SDS011;2982;42.684;23.356;2024-02-04T02:06:46;2.58;;;2.03;;
5912;SDS011;2982;42.684;23.356;2024-02-04T02:09:11;4.95;;;2.13;;
5912;SDS011;2982;42.684;23.356;2024-02-04T02:11:40;3.17;;;2.00;;
5912;SDS011;2982;42.684;23.356;2024-02-04T02:14:10;2.65;;;1.60;;
5912;SDS011;2982;42.684;23.356;2024-02-04T02:16:38;2.67;;;2.00;;
5912;SDS011;2982;42.684;23.356;2024-02-04T02:19:09;1.50;;;1.40;;
5912;SDS011;2982;42.684;23.356;2024-02-04T02:21:58;1.90;;;1.58;;
5912;SDS011;2982;42.684;23.356;2024-02-04T02:24:38;2.78;;;1.77;;
5912;SDS011;2982;42.684;23.356;2024-02-04T02:27:04;2.13;;;1.70;;
5912;SDS011;2982;42.684;23.356;2024-02-04T02:29:29;1.20;;;1.10;;
5912;SDS011;2982;42.684;23.356;2024-02-04T02:31:54;1.58;;;1.48;;
5912;SDS011;2982;42.684;23.356;2024-02-04T02:34:20;1.58;;;1.48;;
5912;SDS011;2982;42.684;23.356;2024-02-04T02:36:49;10.25;;;1.65;;
5912;SDS011;2982;42.684;23.356;2024-02-04T02:39:22;2.03;;;1.30;;
5912;SDS011;2982;42.684;23.356;2024-02-04T02:41:50;1.88;;;1.60;;
5912;SDS011;2982;42.684;23.356;2024-02-04T02:44:18;3.38;;;1.92;;
5912;SDS011;2982;42.684;23.356;2024-02-04T02:46:45;3.22;;;1.80;;
5912;SDS011;2982;42.684;23.356;2024-02-04T02:49:11;2.03;;;1.45;;
5912;SDS011;2982;42.684;23.356;2024-02-04T02:51:37;2.03;;;1.90;;
5912;SDS011;2982;42.684;23.356;2024-02-04T02:54:02;2.03;;;1.92;;
5912;SDS011;2982;42.684;23.356;2024-02-04T02:56:27;2.50;;;1.67;;
5912;SDS011;2982;42.684;23.356;2024-02-04T02:58:53;1.85;;;1.70;;
5912;SDS011;2982;42.684;23.356;2024-02-04T03:01:18;3.30;;;1.88;;
5912;SDS011;2982;42.684;23.356;2024-02-04T03:03:43;2.20;;;2.00;;
5912;SDS011;2982;42.684;23.356;2024-02-04T03:06:09;1.55;;;1.45;;
5912;SDS011;2982;42.684;23.356;2024-02-04T03:08:34;4.10;;;2.22;;
5912;SDS011;2982;42.684;23.356;2024-02-04T03:10:59;1.90;;;1.58;;
5912;SDS011;2982;42.684;23.356;2024-02-04T03:13:25;1.50;;;1.40;;
5912;SDS011;2982;42.684;23.356;2024-02-04T03:15:50;2.42;;;2.05;;
5912;SDS011;2982;42.684;23.356;2024-02-04T03:18:15;2.05;;;1.40;;
5912;SDS011;2982;42.684;23.356;2024-02-04T03:20:41;2.80;;;2.60;;
5912;SDS011;2982;42.684;23.356;2024-02-04T03:23:06;3.88;;;3.08;;
5912;SDS011;2982;42.684;23.356;2024-02-04T03:25:32;3.50;;;2.30;;
5912;SDS011;2982;42.684;23.356;2024-02-04T03:27:57;2.30;;;2.10;;
5912;SDS011;2982;42.684;23.356;2024-02-04T03:30:22;1.90;;;1.80;;
5912;SDS011;2982;42.684;23.356;2024-02-04T03:32:48;1.85;;;1.45;;
5912;SDS011;2982;42.684;23.356;2024-02-04T03:35:13;2.25;;;2.08;;
5912;SDS011;2982;42.684;23.356;2024-02-04T03:37:38;3.53;;;1.90;;
5912;SDS011;2982;42.684;23.356;2024-02-04T03:40:04;1.88;;;1.77;;
5912;SDS011;2982;42.684;23.356;2024-02-04T03:42:30;1.65;;;1.30;;
5912;SDS011;2982;42.684;23.356;2024-02-04T03:44:55;1.73;;;1.63;;
5912;SDS011;2982;42.684;23.356;2024-02-04T03:47:21;2.83;;;1.35;;
5912;SDS011;2982;42.684;23.356;2024-02-04T03:49:46;1.67;;;1.33;;
5912;SDS011;2982;42.684;23.356;2024-02-04T03:52:12;1.63;;;1.52;;
5912;SDS011;2982;42.684;23.356;2024-02-04T03:54:37;4.53;;;1.65;;
5912;SDS011;2982;42.684;23.356;2024-02-04T03:57:02;2.50;;;1.50;;
5912;SDS011;2982;42.684;23.356;2024-02-04T03:59:28;2.20;;;1.40;;
5912;SDS011;2982;42.684;23.356;2024-02-04T04:01:53;1.88;;;1.67;;
5912;SDS011;2982;42.684;23.356;2024-02-04T04:04:19;2.03;;;1.83;;
5912;SDS011;2982;42.684;23.356;2024-02-04T04:06:44;1.50;;;1.23;;
5912;SDS011;2982;42.684;23.356;2024-02-04T04:09:10;2.17;;;1.20;;
5912;SDS011;2982;42.684;23.356;2024-02-04T04:11:36;2.45;;;1.30;;
5912;SDS011;2982;42.684;23.356;2024-02-04T04:14:01;1.85;;;1.60;;
5912;SDS011;2982;42.684;23.356;2024-02-04T04:16:27;1.83;;;1.73;;
5912;SDS011;2982;42.684;23.356;2024-02-04T04:18:52;2.80;;;1.30;;
5912;SDS011;2982;42.684;23.356;2024-02-04T04:21:18;2.40;;;1.83;;
5912;SDS011;2982;42.684;23.356;2024-02-04T04:23:45;2.53;;;1.90;;
5912;SDS011;2982;42.684;23.356;2024-02-04T04:26:11;1.50;;;1.40;;
5912;SDS011;2982;42.684;23.356;2024-02-04T04:28:36;1.80;;;1.58;;
5912;SDS011;2982;42.684;23.356;2024-02-04T04:31:01;2.15;;;1.55;;
5912;SDS011;2982;42.684;23.356;2024-02-04T04:33:27;1.38;;;1.27;;
5912;SDS011;2982;42.684;23.356;2024-02-04T04:35:52;1.63;;;1.52;;
5912;SDS011;2982;42.684;23.356;2024-02-04T04:38:18;1.73;;;1.60;;
5912;SDS011;2982;42.684;23.356;2024-02-04T04:40:43;3.83;;;1.77;;
5912;SDS011;2982;42.684;23.356;2024-02-04T04:43:08;8.05;;;2.20;;
5912;SDS011;2982;42.684;23.356;2024-02-04T04:45:34;3.42;;;1.75;;
5912;SDS011;2982;42.684;23.356;2024-02-04T04:47:59;2.13;;;1.13;;
5912;SDS011;2982;42.684;23.356;2024-02-04T04:50:24;2.17;;;1.65;;
5912;SDS011;2982;42.684;23.356;2024-02-04T04:52:50;1.27;;;1.17;;
5912;SDS011;2982;42.684;23.356;2024-02-04T04:55:15;2.25;;;1.95;;
5912;SDS011;2982;42.684;23.356;2024-02-04T04:57:41;2.13;;;2.03;;
5912;SDS011;2982;42.684;23.356;2024-02-04T05:00:06;3.80;;;1.40;;
5912;SDS011;2982;42.684;23.356;2024-02-04T05:02:32;1.80;;;1.70;;
5912;SDS011;2982;42.684;23.356;2024-02-04T05:04:58;3.55;;;1.95;;
5912;SDS011;2982;42.684;23.356;2024-02-04T05:07:23;2.05;;;1.73;;
5912;SDS011;2982;42.684;23.356;2024-02-04T05:09:48;1.57;;;1.47;;
5912;SDS011;2982;42.684;23.356;2024-02-04T05:12:14;3.20;;;1.98;;
5912;SDS011;2982;42.684;23.356;2024-02-04T05:14:39;3.78;;;1.90;;
5912;SDS011;2982;42.684;23.356;2024-02-04T05:17:04;1.50;;;1.40;;
5912;SDS011;2982;42.684;23.356;2024-02-04T05:19:30;1.77;;;1.67;;
5912;SDS011;2982;42.684;23.356;2024-02-04T05:21:57;1.52;;;1.42;;
5912;SDS011;2982;42.684;23.356;2024-02-04T05:24:22;1.52;;;1.23;;
5912;SDS011;2982;42.684;23.356;2024-02-04T05:26:47;1.60;;;1.50;;
5912;SDS011;2982;42.684;23.356;2024-02-04T05:29:13;2.13;;;2.03;;
5912;SDS011;2982;42.684;23.356;2024-02-04T05:31:41;1.67;;;1.58;;
5912;SDS011;2982;42.684;23.356;2024-02-04T05:34:07;1.33;;;1.23;;
5912;SDS011;2982;42.684;23.356;2024-02-04T05:36:33;2.00;;;1.80;;
5912;SDS011;2982;42.684;23.356;2024-02-04T05:39:09;1.65;;;1.55;;
5912;SDS011;2982;42.684;23.356;2024-02-04T05:41:37;3.42;;;1.80;;
5912;SDS011;2982;42.684;23.356;2024-02-04T05:44:03;1.80;;;1.60;;
5912;SDS011;2982;42.684;23.356;2024-02-04T05:46:29;1.88;;;1.77;;
5912;SDS011;2982;42.684;23.356;2024-02-04T05:48:54;2.30;;;1.95;;
5912;SDS011;2982;42.684;23.356;2024-02-04T05:51:21;2.33;;;1.50;;
5912;SDS011;2982;42.684;23.356;2024-02-04T05:53:47;2.42;;;1.55;;
5912;SDS011;2982;42.684;23.356;2024-02-04T05:56:12;1.88;;;1.77;;
5912;SDS011;2982;42.684;23.356;2024-02-04T05:58:38;2.40;;;2.20;;
5912;SDS011;2982;42.684;23.356;2024-02-04T06:01:04;3.53;;;1.55;;
5912;SDS011;2982;42.684;23.356;2024-02-04T06:03:29;2.20;;;2.00;;
5912;SDS011;2982;42.684;23.356;2024-02-04T06:05:54;2.42;;;1.90;;
5912;SDS011;2982;42.684;23.356;2024-02-04T06:08:20;2.67;;;2.47;;
5912;SDS011;2982;42.684;23.356;2024-02-04T06:10:45;2.40;;;2.20;;
5912;SDS011;2982;42.684;23.356;2024-02-04T06:13:11;1.90;;;1.65;;
5912;SDS011;2982;42.684;23.356;2024-02-04T06:15:36;2.83;;;2.50;;
5912;SDS011;2982;42.684;23.356;2024-02-04T06:18:01;4.22;;;2.53;;
5912;SDS011;2982;42.684;23.356;2024-02-04T06:20:27;6.47;;;2.15;;
5912;SDS011;2982;42.684;23.356;2024-02-04T06:22:52;2.00;;;1.80;;
5912;SDS011;2982;42.684;23.356;2024-02-04T06:25:17;2.00;;;1.85;;
5912;SDS011;2982;42.684;23.356;2024-02-04T06:27:43;2.80;;;2.30;;
5912;SDS011;2982;42.684;23.356;2024-02-04T06:30:08;2.35;;;2.15;;
5912;SDS011;2982;42.684;23.356;2024-02-04T06:32:34;2.45;;;2.25;;
5912;SDS011;2982;42.684;23.356;2024-02-04T06:34:59;2.25;;;1.90;;
5912;SDS011;2982;42.684;23.356;2024-02-04T06:37:24;2.60;;;2.40;;
5912;SDS011;2982;42.684;23.356;2024-02-04T06:39:50;3.38;;;2.47;;
5912;SDS011;2982;42.684;23.356;2024-02-04T06:42:15;2.38;;;2.17;;
5912;SDS011;2982;42.684;23.356;2024-02-04T06:44:44;2.33;;;2.20;;
5912;SDS011;2982;42.684;23.356;2024-02-04T06:47:10;2.20;;;1.90;;
5912;SDS011;2982;42.684;23.356;2024-02-04T06:49:35;2.25;;;1.50;;
5912;SDS011;2982;42.684;23.356;2024-02-04T06:52:01;2.10;;;1.92;;
5912;SDS011;2982;42.684;23.356;2024-02-04T06:54:26;1.52;;;1.42;;
5912;SDS011;2982;42.684;23.356;2024-02-04T06:56:51;6.40;;;2.35;;
5912;SDS011;2982;42.684;23.356;2024-02-04T06:59:17;2.13;;;1.98;;
5912;SDS011;2982;42.684;23.356;2024-02-04T07:01:42;1.80;;;1.38;;
5912;SDS011;2982;42.684;23.356;2024-02-04T07:04:07;1.33;;;1.23;;
5912;SDS011;2982;42.684;23.356;2024-02-04T07:06:33;1.98;;;1.80;;
5912;SDS011;2982;42.684;23.356;2024-02-04T07:08:58;2.08;;;1.63;;
5912;SDS011;2982;42.684;23.356;2024-02-04T07:11:23;1.70;;;1.60;;
5912;SDS011;2982;42.684;23.356;2024-02-04T07:13:49;5.10;;;2.50;;
5912;SDS011;2982;42.684;23.356;2024-02-04T07:16:17;1.73;;;1.50;;
5912;SDS011;2982;42.684;23.356;2024-02-04T07:18:42;5.13;;;2.03;;
5912;SDS011;2982;42.684;23.356;2024-02-04T07:21:08;2.05;;;1.95;;
5912;SDS011;2982;42.684;23.356;2024-02-04T07:23:37;1.67;;;1.30;;
5912;SDS011;2982;42.684;23.356;2024-02-04T07:26:02;1.70;;;1.60;;
5912;SDS011;2982;42.684;23.356;2024-02-04T07:28:28;2.60;;;1.90;;
5912;SDS011;2982;42.684;23.356;2024-02-04T07:30:58;2.63;;;1.20;;
5912;SDS011;2982;42.684;23.356;2024-02-04T07:33:25;2.03;;;1.20;;
5912;SDS011;2982;42.684;23.356;2024-02-04T07:35:51;1.70;;;1.60;;
5912;SDS011;2982;42.684;23.356;2024-02-04T07:38:19;3.13;;;2.10;;
5912;SDS011;2982;42.684;23.356;2024-02-04T07:40:45;2.28;;;2.05;;
5912;SDS011;2982;42.684;23.356;2024-02-04T07:43:10;2.00;;;1.80;;
5912;SDS011;2982;42.684;23.356;2024-02-04T07:45:35;3.42;;;1.92;;
5912;SDS011;2982;42.684;23.356;2024-02-04T07:48:01;4.53;;;2.05;;
5912;SDS011;2982;42.684;23.356;2024-02-04T07:50:26;2.80;;;1.92;;
5912;SDS011;2982;42.684;23.356;2024-02-04T07:52:51;5.22;;;1.67;;
5912;SDS011;2982;42.684;23.356;2024-02-04T07:55:17;2.97;;;1.60;;
5912;SDS011;2982;42.684;23.356;2024-02-04T07:57:42;4.63;;;1.30;;
5912;SDS011;2982;42.684;23.356;2024-02-04T08:00:08;4.55;;;1.35;;
5912;SDS011;2982;42.684;23.356;2024-02-04T08:02:33;4.05;;;1.60;;
5912;SDS011;2982;42.684;23.356;2024-02-04T08:04:59;4.20;;;1.50;;
5912;SDS011;2982;42.684;23.356;2024-02-04T08:07:24;5.03;;;1.90;;
5912;SDS011;2982;42.684;23.356;2024-02-04T08:09:49;5.82;;;1.77;;
5912;SDS011;2982;42.684;23.356;2024-02-04T08:12:15;5.47;;;1.80;;
5912;SDS011;2982;42.684;23.356;2024-02-04T08:14:40;3.00;;;1.63;;
5912;SDS011;2982;42.684;23.356;2024-02-04T08:17:06;2.67;;;2.13;;
5912;SDS011;2982;42.684;23.356;2024-02-04T08:19:31;1.83;;;1.58;;
5912;SDS011;2982;42.684;23.356;2024-02-04T08:21:56;3.15;;;1.80;;
5912;SDS011;2982;42.684;23.356;2024-02-04T08:24:22;1.98;;;1.88;;
5912;SDS011;2982;42.684;23.356;2024-02-04T08:26:47;1.65;;;1.55;;
5912;SDS011;2982;42.684;23.356;2024-02-04T08:29:12;1.60;;;1.30;;
5912;SDS011;2982;42.684;23.356;2024-02-04T08:31:38;2.20;;;1.60;;
5912;SDS011;2982;42.684;23.356;2024-02-04T08:34:03;1.52;;;1.20;;
5912;SDS011;2982;42.684;23.356;2024-02-04T08:36:28;1.63;;;1.52;;
5912;SDS011;2982;42.684;23.356;2024-02-04T08:38:54;2.00;;;1.58;;
5912;SDS011;2982;42.684;23.356;2024-02-04T08:41:20;4.75;;;1.65;;
5912;SDS011;2982;42.684;23.356;2024-02-04T08:43:45;1.02;;;1.00;;
5912;SDS011;2982;42.684;23.356;2024-02-04T08:46:11;0.95;;;0.70;;
5912;SDS011;2982;42.684;23.356;2024-02-04T08:48:40;1.10;;;0.93;;
5912;SDS011;2982;42.684;23.356;2024-02-04T08:51:12;6.63;;;1.77;;
5912;SDS011;2982;42.684;23.356;2024-02-04T08:53:39;3.83;;;1.35;;
5912;SDS011;2982;42.684;23.356;2024-02-04T08:56:05;2.97;;;1.77;;
5912;SDS011;2982;42.684;23.356;2024-02-04T08:58:34;3.88;;;1.65;;
5912;SDS011;2982;42.684;23.356;2024-02-04T09:01:00;10.25;;;2.85;;
5912;SDS011;2982;42.684;23.356;2024-02-04T09:03:25;1.92;;;1.83;;
5912;SDS011;2982;42.684;23.356;2024-02-04T09:05:51;3.58;;;1.73;;
5912;SDS011;2982;42.684;23.356;2024-02-04T09:08:18;3.35;;;1.38;;
5912;SDS011;2982;42.684;23.356;2024-02-04T09:11:08;7.20;;;1.20;;
5912;SDS011;2982;42.684;23.356;2024-02-04T09:13:37;2.88;;;1.83;;
5912;SDS011;2982;42.684;23.356;2024-02-04T09:16:02;1.13;;;1.13;;
5912;SDS011;2982;42.684;23.356;2024-02-04T09:18:28;6.25;;;1.65;;
5912;SDS011;2982;42.684;23.356;2024-02-04T09:20:53;1.55;;;1.38;;
5912;SDS011;2982;42.684;23.356;2024-02-04T09:23:19;2.08;;;1.38;;
5912;SDS011;2982;42.684;23.356;2024-02-04T09:25:44;3.83;;;1.23;;
5912;SDS011;2982;42.684;23.356;2024-02-04T09:28:10;1.42;;;1.30;;
5912;SDS011;2982;42.684;23.356;2024-02-04T09:30:35;1.77;;;1.65;;
5912;SDS011;2982;42.684;23.356;2024-02-04T09:33:01;2.83;;;1.45;;
5912;SDS011;2982;42.684;23.356;2024-02-04T09:35:26;1.95;;;1.67;;
5912;SDS011;2982;42.684;23.356;2024-02-04T09:37:51;1.30;;;1.13;;
5912;SDS011;2982;42.684;23.356;2024-02-04T09:40:17;5.85;;;1.17;;
5912;SDS011;2982;42.684;23.356;2024-02-04T09:42:42;3.75;;;1.13;;
5912;SDS011;2982;42.684;23.356;2024-02-04T09:45:07;0.70;;;0.60;;
5912;SDS011;2982;42.684;23.356;2024-02-04T09:47:34;4.90;;;0.98;;
5912;SDS011;2982;42.684;23.356;2024-02-04T09:50:00;1.05;;;0.95;;
5912;SDS011;2982;42.684;23.356;2024-02-04T09:52:32;1.63;;;0.98;;
5912;SDS011;2982;42.684;23.356;2024-02-04T09:55:02;5.35;;;0.75;;
5912;SDS011;2982;42.684;23.356;2024-02-04T09:57:28;3.50;;;0.82;;
5912;SDS011;2982;42.684;23.356;2024-02-04T09:59:54;0.60;;;0.60;;
5912;SDS011;2982;42.684;23.356;2024-02-04T10:02:23;1.13;;;1.00;;
5912;SDS011;2982;42.684;23.356;2024-02-04T10:04:48;0.77;;;0.77;;
5912;SDS011;2982;42.684;23.356;2024-02-04T10:07:14;3.13;;;1.17;;
5912;SDS011;2982;42.684;23.356;2024-02-04T10:09:39;1.08;;;0.90;;
5912;SDS011;2982;42.684;23.356;2024-02-04T10:12:05;2.88;;;0.90;;
5912;SDS011;2982;42.684;23.356;2024-02-04T10:14:31;0.77;;;0.70;;
5912;SDS011;2982;42.684;23.356;2024-02-04T10:16:56;1.10;;;1.00;;
5912;SDS011;2982;42.684;23.356;2024-02-04T10:19:25;2.58;;;0.85;;
5912;SDS011;2982;42.684;23.356;2024-02-04T10:22:03;1.85;;;0.77;;
5912;SDS011;2982;42.684;23.356;2024-02-04T10:24:29;1.05;;;0.88;;
5912;SDS011;2982;42.684;23.356;2024-02-04T10:26:55;1.58;;;0.85;;
5912;SDS011;2982;42.684;23.356;2024-02-04T10:29:24;0.70;;;0.70;;
5912;SDS011;2982;42.684;23.356;2024-02-04T10:31:54;1.58;;;0.93;;
5912;SDS011;2982;42.684;23.356;2024-02-04T10:34:19;0.90;;;0.90;;
5912;SDS011;2982;42.684;23.356;2024-02-04T10:36:45;1.08;;;0.90;;
5912;SDS011;2982;42.684;23.356;2024-02-04T10:39:10;0.77;;;0.77;;
5912;SDS011;2982;42.684;23.356;2024-02-04T10:41:36;1.40;;;1.30;;
5912;SDS011;2982;42.684;23.356;2024-02-04T10:44:05;3.60;;;1.23;;
5912;SDS011;2982;42.684;23.356;2024-02-04T10:46:32;1.17;;;0.77;;
5912;SDS011;2982;42.684;23.356;2024-02-04T10:49:02;1.30;;;1.10;;
5912;SDS011;2982;42.684;23.356;2024-02-04T10:51:32;1.52;;;0.77;;
5912;SDS011;2982;42.684;23.356;2024-02-04T10:54:00;2.20;;;0.95;;
5912;SDS011;2982;42.684;23.356;2024-02-04T10:56:34;1.15;;;1.05;;
5912;SDS011;2982;42.684;23.356;2024-02-04T10:59:02;0.70;;;0.70;;
5912;SDS011;2982;42.684;23.356;2024-02-04T11:01:29;1.08;;;0.95;;
5912;SDS011;2982;42.684;23.356;2024-02-04T11:03:54;1.50;;;1.02;;
5912;SDS011;2982;42.684;23.356;2024-02-04T11:06:21;0.90;;;0.90;;
5912;SDS011;2982;42.684;23.356;2024-02-04T11:08:48;1.80;;;0.95;;
5912;SDS011;2982;42.684;23.356;2024-02-04T11:11:14;0.95;;;0.90;;
5912;SDS011;2982;42.684;23.356;2024-02-04T11:13:41;1.52;;;1.00;;
5912;SDS011;2982;42.684;23.356;2024-02-04T11:16:15;0.90;;;0.90;;
5912;SDS011;2982;42.684;23.356;2024-02-04T11:25:27;0.57;;;0.57;;
5912;SDS011;2982;42.684;23.356;2024-02-04T11:28:07;2.80;;;2.38;;
5912;SDS011;2982;42.684;23.356;2024-02-04T11:30:34;1.48;;;1.00;;
5912;SDS011;2982;42.684;23.356;2024-02-04T11:33:00;0.70;;;0.60;;
5912;SDS011;2982;42.684;23.356;2024-02-04T11:35:25;0.80;;;0.63;;
5912;SDS011;2982;42.684;23.356;2024-02-04T11:37:53;0.95;;;0.90;;
5912;SDS011;2982;42.684;23.356;2024-02-04T11:40:20;2.55;;;1.17;;
5912;SDS011;2982;42.684;23.356;2024-02-04T11:42:48;2.70;;;0.95;;
5912;SDS011;2982;42.684;23.356;2024-02-04T11:45:14;0.80;;;0.80;;
5912;SDS011;2982;42.684;23.356;2024-02-04T11:47:40;2.00;;;0.88;;
5912;SDS011;2982;42.684;23.356;2024-02-04T11:50:06;1.25;;;0.88;;
5912;SDS011;2982;42.684;23.356;2024-02-04T11:52:34;2.25;;;0.90;;
5912;SDS011;2982;42.684;23.356;2024-02-04T11:55:00;4.60;;;0.80;;
5912;SDS011;2982;42.684;23.356;2024-02-04T11:57:25;0.60;;;0.52;;
5912;SDS011;2982;42.684;23.356;2024-02-04T11:59:52;0.65;;;0.65;;
5912;SDS011;2982;42.684;23.356;2024-02-04T12:02:20;0.60;;;0.60;;
5912;SDS011;2982;42.684;23.356;2024-02-04T12:04:46;1.75;;;0.82;;
5912;SDS011;2982;42.684;23.356;2024-02-04T12:07:15;0.77;;;0.73;;
5912;SDS011;2982;42.684;23.356;2024-02-04T12:09:42;1.25;;;0.60;;
5912;SDS011;2982;42.684;23.356;2024-02-04T12:12:08;0.70;;;0.70;;
5912;SDS011;2982;42.684;23.356;2024-02-04T12:14:34;1.42;;;0.70;;
5912;SDS011;2982;42.684;23.356;2024-02-04T12:17:06;6.35;;;0.90;;
5912;SDS011;2982;42.684;23.356;2024-02-04T12:19:38;0.70;;;0.70;;
5912;SDS011;2982;42.684;23.356;2024-02-04T12:22:04;0.77;;;0.77;;
5912;SDS011;2982;42.684;23.356;2024-02-04T12:24:30;0.70;;;0.50;;
5912;SDS011;2982;42.684;23.356;2024-02-04T12:26:55;2.40;;;0.93;;
5912;SDS011;2982;42.684;23.356;2024-02-04T12:29:21;1.00;;;1.00;;
5912;SDS011;2982;42.684;23.356;2024-02-04T12:31:46;1.30;;;1.20;;
5912;SDS011;2982;42.684;23.356;2024-02-04T12:34:12;0.95;;;0.80;;
5912;SDS011;2982;42.684;23.356;2024-02-04T12:36:37;0.93;;;0.93;;
5912;SDS011;2982;42.684;23.356;2024-02-04T12:39:03;4.00;;;0.88;;
5912;SDS011;2982;42.684;23.356;2024-02-04T12:41:28;0.60;;;0.60;;
5912;SDS011;2982;42.684;23.356;2024-02-04T12:43:58;1.77;;;0.90;;
5912;SDS011;2982;42.684;23.356;2024-02-04T12:46:25;0.98;;;0.98;;
5912;SDS011;2982;42.684;23.356;2024-02-04T12:48:55;3.17;;;1.00;;
5912;SDS011;2982;42.684;23.356;2024-02-04T12:53:50;0.70;;;0.70;;
5912;SDS011;2982;42.684;23.356;2024-02-04T12:56:26;1.48;;;1.00;;
5912;SDS011;2982;42.684;23.356;2024-02-04T12:58:51;1.65;;;0.90;;
5912;SDS011;2982;42.684;23.356;2024-02-04T13:01:17;2.63;;;1.10;;
5912;SDS011;2982;42.684;23.356;2024-02-04T13:03:43;1.02;;;0.77;;
5912;SDS011;2982;42.684;23.356;2024-02-04T13:06:08;0.90;;;0.80;;
5912;SDS011;2982;42.684;23.356;2024-02-04T13:08:34;1.13;;;0.80;;
5912;SDS011;2982;42.684;23.356;2024-02-04T13:10:59;1.08;;;0.80;;
5912;SDS011;2982;42.684;23.356;2024-02-04T13:13:24;0.80;;;0.80;;
5912;SDS011;2982;42.684;23.356;2024-02-04T13:15:50;0.60;;;0.60;;
5912;SDS011;2982;42.684;23.356;2024-02-04T13:18:15;2.25;;;1.75;;
5912;SDS011;2982;42.684;23.356;2024-02-04T13:20:41;0.93;;;0.80;;
5912;SDS011;2982;42.684;23.356;2024-02-04T13:23:07;2.58;;;0.70;;
5912;SDS011;2982;42.684;23.356;2024-02-04T13:25:33;0.40;;;0.40;;
5912;SDS011;2982;42.684;23.356;2024-02-04T13:27:58;1.00;;;0.90;;
5912;SDS011;2982;42.684;23.356;2024-02-04T13:30:24;2.03;;;0.90;;
5912;SDS011;2982;42.684;23.356;2024-02-04T13:32:50;1.02;;;0.90;;
5912;SDS011;2982;42.684;23.356;2024-02-04T13:35:15;0.95;;;0.77;;
5912;SDS011;2982;42.684;23.356;2024-02-04T13:37:41;0.70;;;0.70;;
5912;SDS011;2982;42.684;23.356;2024-02-04T13:40:09;1.25;;;1.00;;
5912;SDS011;2982;42.684;23.356;2024-02-04T13:42:34;0.90;;;0.90;;
5912;SDS011;2982;42.684;23.356;2024-02-04T13:45:00;0.80;;;0.80;;
5912;SDS011;2982;42.684;23.356;2024-02-04T13:47:26;1.73;;;1.00;;
5912;SDS011;2982;42.684;23.356;2024-02-04T13:49:51;1.63;;;1.10;;
5912;SDS011;2982;42.684;23.356;2024-02-04T13:52:17;0.65;;;0.65;;
5912;SDS011;2982;42.684;23.356;2024-02-04T13:54:42;1.95;;;1.13;;
5912;SDS011;2982;42.684;23.356;2024-02-04T13:57:09;2.15;;;1.02;;
5912;SDS011;2982;42.684;23.356;2024-02-04T13:59:34;1.88;;;1.00;;
5912;SDS011;2982;42.684;23.356;2024-02-04T14:01:59;4.30;;;1.10;;
5912;SDS011;2982;42.684;23.356;2024-02-04T14:04:25;1.15;;;0.90;;
5912;SDS011;2982;42.684;23.356;2024-02-04T14:06:50;2.22;;;1.02;;
5912;SDS011;2982;42.684;23.356;2024-02-04T14:09:15;2.25;;;1.05;;
5912;SDS011;2982;42.684;23.356;2024-02-04T14:11:41;1.45;;;0.90;;
5912;SDS011;2982;42.684;23.356;2024-02-04T14:14:06;1.55;;;1.10;;
5912;SDS011;2982;42.684;23.356;2024-02-04T14:16:34;2.55;;;1.08;;
5912;SDS011;2982;42.684;23.356;2024-02-04T14:18:59;4.80;;;1.38;;
5912;SDS011;2982;42.684;23.356;2024-02-04T14:21:24;2.30;;;0.90;;
5912;SDS011;2982;42.684;23.356;2024-02-04T14:23:50;1.85;;;1.00;;
5912;SDS011;2982;42.684;23.356;2024-02-04T14:26:16;1.38;;;1.05;;
5912;SDS011;2982;42.684;23.356;2024-02-04T14:28:42;3.25;;;0.82;;
5912;SDS011;2982;42.684;23.356;2024-02-04T14:31:07;2.20;;;0.90;;
5912;SDS011;2982;42.684;23.356;2024-02-04T14:33:32;4.90;;;1.20;;
5912;SDS011;2982;42.684;23.356;2024-02-04T14:35:58;2.40;;;1.05;;
5912;SDS011;2982;42.684;23.356;2024-02-04T14:38:23;4.10;;;1.65;;
5912;SDS011;2982;42.684;23.356;2024-02-04T14:40:48;2.50;;;1.52;;
5912;SDS011;2982;42.684;23.356;2024-02-04T14:43:14;1.20;;;1.10;;
5912;SDS011;2982;42.684;23.356;2024-02-04T14:45:39;0.80;;;0.80;;
5912;SDS011;2982;42.684;23.356;2024-02-04T14:48:05;1.77;;;0.90;;
5912;SDS011;2982;42.684;23.356;2024-02-04T14:50:30;1.20;;;0.95;;
5912;SDS011;2982;42.684;23.356;2024-02-04T14:52:55;1.65;;;0.90;;
5912;SDS011;2982;42.684;23.356;2024-02-04T14:55:21;1.45;;;0.82;;
5912;SDS011;2982;42.684;23.356;2024-02-04T14:57:46;1.35;;;1.00;;
5912;SDS011;2982;42.684;23.356;2024-02-04T15:00:12;1.23;;;0.80;;
5912;SDS011;2982;42.684;23.356;2024-02-04T15:02:37;1.90;;;1.13;;